Time;durP1;ratioP1;P1;durP2;ratioP2;P2;SDS_P1;SDS_P2;PMS_P1;PMS_P2;Temp;Humidity;BMP_temperature;BMP_pressure;BME280_temperature;BME280_humidity;BME280_pressure;Samples;Min_cycle;Max_cycle;Signal;HPM_P1;HPM_P2
2024/04/12 00:01:46;;;;;;;0.00;0.00;;;12.50;99.70;;;;;;5428845;26;20089;-71
2024/04/12 00:04:18;;;;;;;0.10;0.10;;;12.50;99.90;;;;;;5428235;26;20073;-71
2024/04/12 00:06:59;;;;;;;0.08;0.08;;;12.40;99.90;;;;;;5424807;26;20003;-71
2024/04/12 00:09:26;;;;;;;0.00;0.00;;;12.20;99.90;;;;;;5425018;26;20197;-68
2024/04/12 00:11:55;;;;;;;0.10;0.10;;;12.30;91.60;;;;;;5430533;26;20022;-69
2024/04/12 00:14:23;;;;;;;0.08;0.08;;;12.40;99.90;;;;;;5407482;26;20038;-68
2024/04/12 00:16:52;;;;;;;0.00;0.00;;;12.20;91.80;;;;;;5425152;26;20146;-69
2024/04/12 00:19:18;;;;;;;0.00;0.00;;;12.20;91.90;;;;;;5424587;26;20187;-68
2024/04/12 00:21:46;;;;;;;0.08;0.05;;;12.20;91.90;;;;;;5426438;26;20221;-68
2024/04/12 00:24:15;;;;;;;0.00;0.00;;;12.20;92.00;;;;;;5424532;26;20259;-69
2024/04/12 00:26:43;;;;;;;0.32;0.25;;;12.20;92.10;;;;;;5424245;26;19991;-68
2024/04/12 00:29:36;;;;;;;0.03;0.03;;;12.20;92.20;;;;;;5424288;26;20108;-68
2024/04/12 00:32:05;;;;;;;0.03;0.03;;;12.10;92.30;;;;;;5412161;26;20052;-70
2024/04/12 00:34:38;;;;;;;0.00;0.00;;;12.30;99.90;;;;;;5424145;26;19987;-69
2024/04/12 00:37:07;;;;;;;0.30;0.30;;;12.00;92.40;;;;;;5427216;26;19998;-69
2024/04/12 00:39:36;;;;;;;0.00;0.00;;;12.00;99.90;;;;;;5423724;26;20007;-70
2024/04/12 00:42:09;;;;;;;;;;;12.00;92.50;;;;;;5424691;26;20006;-70
2024/04/12 00:44:40;;;;;;;0.00;0.00;;;12.00;99.90;;;;;;5424107;26;19925;-69
2024/04/12 00:47:15;;;;;;;0.00;0.00;;;11.80;99.90;;;;;;5423393;26;20002;-70
2024/04/12 00:49:51;;;;;;;0.00;0.00;;;11.90;92.60;;;;;;5424072;26;19996;-70
2024/04/12 00:52:26;;;;;;;0.00;0.00;;;11.90;92.80;;;;;;5424694;26;20007;-70
2024/04/12 00:55:06;;;;;;;0.00;0.00;;;11.90;93.10;;;;;;5427427;26;20100;-70
2024/04/12 00:57:39;;;;;;;0.15;0.15;;;11.90;93.00;;;;;;5424131;26;20314;-70
2024/04/12 01:00:19;;;;;;;0.20;0.20;;;11.80;93.00;;;;;;5424305;26;20065;-71
2024/04/12 01:02:48;;;;;;;0.20;0.20;;;11.80;93.00;;;;;;5423876;26;19988;-71
2024/04/12 01:05:18;;;;;;;0.00;0.00;;;11.80;93.20;;;;;;5424084;26;20007;-70
2024/04/12 01:07:55;;;;;;;0.10;0.10;;;11.80;99.90;;;;;;5423853;26;20049;-70
2024/04/12 01:10:26;;;;;;;0.35;0.35;;;11.70;93.30;;;;;;5424494;26;20003;-70
2024/04/12 01:12:57;;;;;;;0.05;0.05;;;11.70;93.30;;;;;;5423798;26;20044;-71
2024/04/12 01:15:36;;;;;;;0.10;0.10;;;11.70;93.40;;;;;;5423537;26;20000;-70
2024/04/12 01:18:04;;;;;;;0.10;0.10;;;11.70;93.50;;;;;;5423615;26;20123;-70
2024/04/12 01:20:34;;;;;;;1.10;0.73;;;11.70;93.60;;;;;;5438110;26;19999;-70
2024/04/12 01:23:00;;;;;;;0.20;0.20;;;11.60;93.70;;;;;;5423476;26;20006;-69
2024/04/12 01:25:28;;;;;;;0.20;0.20;;;11.50;99.90;;;;;;5427114;26;19992;-69
2024/04/12 01:27:55;;;;;;;0.50;0.40;;;11.60;93.90;;;;;;5426524;26;19995;-69
2024/04/12 01:30:22;;;;;;;0.30;0.30;;;11.60;94.00;;;;;;5423557;26;20050;-69
2024/04/12 01:32:50;;;;;;;0.00;0.00;;;11.50;94.10;;;;;;5423055;26;20002;-70
2024/04/12 01:35:22;;;;;;;0.15;0.15;;;11.50;94.10;;;;;;5423385;26;20101;-69
2024/04/12 01:37:51;;;;;;;0.00;0.00;;;11.50;94.50;;;;;;5392744;26;20003;-69
2024/04/12 01:40:18;;;;;;;0.22;0.20;;;11.50;94.30;;;;;;5423152;26;20108;-69
2024/04/12 01:42:44;;;;;;;0.08;0.08;;;11.40;94.30;;;;;;5423002;26;20024;-69
2024/04/12 01:45:13;;;;;;;0.00;0.00;;;11.40;94.40;;;;;;5426296;26;19995;-69
2024/04/12 01:47:41;;;;;;;0.00;0.00;;;11.40;94.50;;;;;;5421997;26;20159;-69
2024/04/12 01:50:07;;;;;;;0.08;0.08;;;11.40;94.60;;;;;;5423248;26;20006;-69
2024/04/12 01:52:49;;;;;;;0.25;0.25;;;11.40;94.60;;;;;;5426658;26;19995;-69
2024/04/12 01:55:18;;;;;;;0.00;0.00;;;11.40;94.60;;;;;;5423165;26;19996;-68
2024/04/12 01:57:51;;;;;;;0.03;0.03;;;11.40;94.70;;;;;;5422003;26;20012;-69
2024/04/12 02:00:20;;;;;;;0.10;0.08;;;11.60;99.90;;;;;;5428310;26;20006;-69
2024/04/12 02:02:46;;;;;;;0.00;0.00;;;11.30;94.90;;;;;;5446850;26;19998;-69
2024/04/12 02:05:13;;;;;;;0.35;0.32;;;11.30;94.90;;;;;;5428708;26;19991;-69
2024/04/12 02:07:44;;;;;;;0.35;0.35;;;11.30;95.10;;;;;;5434215;26;19988;-70
2024/04/12 02:10:11;;;;;;;0.10;0.10;;;11.30;95.10;;;;;;5431467;26;19991;-69
2024/04/12 02:12:42;;;;;;;0.10;0.10;;;11.20;95.20;;;;;;5431015;26;20010;-69
2024/04/12 02:15:23;;;;;;;0.15;0.15;;;11.20;95.30;;;;;;5443775;26;20170;-69
2024/04/12 02:17:54;;;;;;;0.15;0.15;;;10.20;95.00;;;;;;5407055;26;20286;-69
2024/04/12 02:20:20;;;;;;;0.00;0.00;;;11.20;95.40;;;;;;5371567;26;19996;-69
2024/04/12 02:22:49;;;;;;;0.00;0.00;;;11.20;95.40;;;;;;5424848;26;20016;-69
2024/04/12 02:25:17;;;;;;;0.85;0.13;;;11.20;95.50;;;;;;5426559;26;20003;-70
2024/04/12 02:27:55;;;;;;;0.10;0.10;;;11.20;95.60;;;;;;5366690;26;20323;-71
2024/04/12 02:30:24;;;;;;;0.00;0.00;;;11.20;95.60;;;;;;5426324;26;19999;-71
2024/04/12 02:32:52;;;;;;;0.00;0.00;;;11.20;95.70;;;;;;5426063;26;19991;-69
2024/04/12 02:35:21;;;;;;;0.00;0.00;;;11.20;99.90;;;;;;5427076;26;19987;-69
2024/04/12 02:37:51;;;;;;;0.00;0.00;;;11.10;95.80;;;;;;5426605;26;19996;-70
2024/04/12 02:40:18;;;;;;;0.00;0.00;;;11.10;95.90;;;;;;5429639;26;20050;-72
2024/04/12 02:42:45;;;;;;;0.73;0.20;;;11.10;96.00;;;;;;5425670;26;19999;-71
2024/04/12 02:45:12;;;;;;;0.08;0.08;;;11.10;96.00;;;;;;5425889;26;20107;-71
2024/04/12 02:47:41;;;;;;;0.55;0.55;;;11.10;99.90;;;;;;5425732;26;19998;-71
2024/04/12 02:50:10;;;;;;;;;;;11.00;96.20;;;;;;5426289;26;20172;-71
2024/04/12 02:52:40;;;;;;;0.00;0.00;;;11.00;96.70;;;;;;5428722;26;19921;-71
2024/04/12 02:55:12;;;;;;;0.00;0.00;;;11.00;96.30;;;;;;5425580;26;20043;-71
2024/04/12 02:57:41;;;;;;;0.15;0.15;;;9.20;95.90;;;;;;5425601;26;19992;-69
2024/04/12 03:00:31;;;;;;;2.20;0.68;;;10.90;96.50;;;;;;5425410;26;20039;-69
2024/04/12 03:02:57;;;;;;;0.08;0.08;;;10.90;96.70;;;;;;5397385;26;19987;-71
2024/04/12 03:05:23;;;;;;;0.20;0.20;;;10.90;96.90;;;;;;5425587;26;20040;-71
2024/04/12 03:07:51;;;;;;;0.10;0.10;;;10.90;96.70;;;;;;5429043;26;20043;-70
2024/04/12 03:10:18;;;;;;;0.03;0.03;;;10.90;99.90;;;;;;5427875;26;19987;-71
2024/04/12 03:12:51;;;;;;;0.00;0.00;;;10.80;96.90;;;;;;5426784;26;19995;-70
2024/04/12 03:15:19;;;;;;;0.05;0.05;;;10.10;96.80;;;;;;5425441;26;20014;-71
2024/04/12 03:17:46;;;;;;;0.10;0.10;;;10.80;97.10;;;;;;5425489;26;20002;-71
2024/04/12 03:20:15;;;;;;;0.43;0.22;;;;;;;;;;5425625;26;19995;-71
2024/04/12 03:22:45;;;;;;;0.03;0.03;;;10.70;99.30;;;;;;5425577;26;20003;-71
2024/04/12 03:25:11;;;;;;;0.32;0.20;;;10.70;99.90;;;;;;5425565;26;20032;-68
2024/04/12 03:27:38;;;;;;;0.20;0.17;;;10.70;99.90;;;;;;5427747;26;19987;-68
2024/04/12 03:30:16;;;;;;;0.00;0.00;;;10.60;97.50;;;;;;5425590;26;20006;-69
2024/04/12 03:32:44;;;;;;;0.25;0.17;;;10.60;97.60;;;;;;5425152;26;20044;-68
2024/04/12 03:35:12;;;;;;;0.43;0.43;;;10.60;99.90;;;;;;5425417;26;19999;-70
2024/04/12 03:37:47;;;;;;;0.10;0.10;;;10.50;97.70;;;;;;5425020;26;19995;-70
2024/04/12 03:40:17;;;;;;;0.20;0.20;;;10.60;99.90;;;;;;5424953;26;20161;-70
2024/04/12 03:42:44;;;;;;;0.10;0.08;;;10.60;99.90;;;;;;5432519;26;20052;-69
2024/04/12 03:45:14;;;;;;;1.00;0.50;;;10.60;99.90;;;;;;5427145;26;19996;-69
2024/04/12 03:47:40;;;;;;;0.00;0.00;;;10.50;97.90;;;;;;5422772;26;19992;-69
2024/04/12 03:50:13;;;;;;;0.00;0.00;;;10.60;98.00;;;;;;5423785;26;19991;-69
2024/04/12 03:52:45;;;;;;;0.03;0.03;;;10.50;99.90;;;;;;5407946;26;20290;-69
2024/04/12 03:55:11;;;;;;;0.00;0.00;;;10.50;98.20;;;;;;5424690;26;20061;-69
2024/04/12 03:57:39;;;;;;;0.15;0.15;;;10.50;99.90;;;;;;5408820;26;20006;-69
2024/04/12 04:00:11;;;;;;;0.20;0.20;;;10.50;98.20;;;;;;5424663;26;20023;-68
2024/04/12 04:02:37;;;;;;;0.40;0.40;;;10.30;98.10;;;;;;5434214;26;20020;-69
2024/04/12 04:05:14;;;;;;;0.63;0.28;;;10.50;99.90;;;;;;5424968;26;19988;-68
2024/04/12 04:07:46;;;;;;;0.55;0.10;;;10.60;99.90;;;;;;5424553;26;19998;-68
2024/04/12 04:10:20;;;;;;;0.10;0.00;;;10.40;99.90;;;;;;5405519;26;20015;-68
2024/04/12 04:12:49;;;;;;;0.20;0.20;;;10.30;99.90;;;;;;5396934;26;19986;-69
2024/04/12 04:15:15;;;;;;;0.00;0.00;;;10.20;98.80;;;;;;5430977;26;20323;-69
2024/04/12 04:17:47;;;;;;;1.52;0.38;;;10.20;99.00;;;;;;5370534;26;20006;-69
2024/04/12 04:20:14;;;;;;;0.03;0.03;;;10.30;98.90;;;;;;5435732;26;20046;-70
2024/04/12 04:22:40;;;;;;;0.00;0.00;;;10.20;98.90;;;;;;5425827;26;19995;-71
2024/04/12 04:25:10;;;;;;;0.45;0.10;;;10.20;99.00;;;;;;5424488;26;20003;-71
2024/04/12 04:27:37;;;;;;;0.00;0.00;;;10.30;99.90;;;;;;5424270;26;19992;-71
2024/04/12 04:30:05;;;;;;;0.00;0.00;;;10.20;99.10;;;;;;5423978;26;19991;-72
2024/04/12 04:32:31;;;;;;;0.03;0.03;;;10.20;98.90;;;;;;5423989;26;20052;-72
2024/04/12 04:35:08;;;;;;;0.30;0.30;;;10.30;99.00;;;;;;5427263;26;20020;-71
2024/04/12 04:37:35;;;;;;;0.00;0.00;;;10.20;98.90;;;;;;5424053;26;20357;-70
2024/04/12 04:40:20;;;;;;;0.40;0.40;;;10.20;99.00;;;;;;5438709;26;20020;-70
2024/04/12 04:42:49;;;;;;;0.15;0.15;;;10.30;99.00;;;;;;5427866;26;20014;-67
2024/04/12 04:45:18;;;;;;;0.10;0.00;;;10.20;98.90;;;;;;5442747;26;20036;-68
2024/04/12 04:47:45;;;;;;;0.00;0.00;;;10.20;99.20;;;;;;5434420;26;19987;-68
2024/04/12 04:50:17;;;;;;;0.10;0.10;;;10.20;99.30;;;;;;5426105;26;19988;-69
2024/04/12 04:52:44;;;;;;;0.30;0.30;;;10.20;99.10;;;;;;5427191;26;19988;-68
2024/04/12 04:55:13;;;;;;;0.00;0.00;;;10.20;99.10;;;;;;5424106;26;20100;-68
2024/04/12 04:57:47;;;;;;;0.45;0.20;;;10.20;99.20;;;;;;5423832;26;20053;-68
2024/04/12 05:00:22;;;;;;;0.00;0.00;;;10.30;99.30;;;;;;5424551;26;20078;-68
2024/04/12 05:02:50;;;;;;;0.10;0.10;;;10.30;99.10;;;;;;5437447;26;20128;-68
2024/04/12 05:05:23;;;;;;;0.00;0.00;;;10.40;99.90;;;;;;5423901;26;19995;-68
2024/04/12 05:07:57;;;;;;;0.32;0.32;;;10.30;99.20;;;;;;5423663;26;19995;-68
2024/04/12 05:10:24;;;;;;;0.10;0.00;;;10.40;99.20;;;;;;5426886;26;19999;-69
2024/04/12 05:12:50;;;;;;;0.10;0.10;;;;;;;;;;5424736;26;19988;-68
2024/04/12 05:18:03;;;;;;;0.05;0.05;;;10.40;99.30;;;;;;5427740;26;20038;-68
2024/04/12 05:20:39;;;;;;;0.00;0.00;;;10.50;99.40;;;;;;5423209;26;19992;-68
2024/04/12 05:23:11;;;;;;;0.00;0.00;;;10.50;99.40;;;;;;5427285;26;20096;-68
2024/04/12 05:25:40;;;;;;;0.03;0.03;;;10.60;99.30;;;;;;5426292;26;20056;-69
2024/04/12 05:28:09;;;;;;;0.00;0.00;;;10.50;99.30;;;;;;5423159;26;20011;-66
2024/04/12 05:30:40;;;;;;;0.00;0.00;;;10.50;99.50;;;;;;5422960;26;20002;-69
2024/04/12 05:33:10;;;;;;;0.00;0.00;;;10.60;99.60;;;;;;5424138;26;20061;-69
2024/04/12 05:35:37;;;;;;;0.05;0.05;;;10.60;99.70;;;;;;5425471;26;20201;-69
2024/04/12 05:38:10;;;;;;;0.20;0.10;;;10.60;99.90;;;;;;5426528;26;19988;-69
2024/04/12 05:40:45;;;;;;;0.10;0.10;;;10.70;99.80;;;;;;5426426;26;19995;-69
2024/04/12 05:43:14;;;;;;;0.00;0.00;;;10.80;99.70;;;;;;5430315;26;20002;-69
2024/04/12 05:45:40;;;;;;;;;;;10.80;99.60;;;;;;5426714;26;20007;-69
2024/04/12 05:48:13;;;;;;;0.00;0.00;;;11.00;99.90;;;;;;5426638;26;20312;-69
2024/04/12 05:50:46;;;;;;;0.00;0.00;;;10.90;99.90;;;;;;5426410;26;20003;-69
2024/04/12 05:53:12;;;;;;;0.15;0.15;;;11.10;99.90;;;;;;5426613;26;20026;-69
2024/04/12 05:55:44;;;;;;;0.10;0.10;;;11.30;99.90;;;;;;5426365;26;20379;-69
2024/04/12 05:58:17;;;;;;;0.10;0.10;;;11.20;99.10;;;;;;5426479;26;20061;-69
2024/04/12 06:00:47;;;;;;;0.17;0.17;;;11.40;99.90;;;;;;5429626;26;19996;-69
2024/04/12 06:03:14;;;;;;;0.00;0.00;;;11.40;99.00;;;;;;5426427;26;20015;-69
2024/04/12 06:05:55;;;;;;;0.22;0.22;;;11.50;98.90;;;;;;5366703;26;20028;-69
2024/04/12 06:08:22;;;;;;;0.00;0.00;;;11.50;99.00;;;;;;5426193;26;20275;-69
2024/04/12 06:10:50;;;;;;;0.30;0.30;;;11.60;98.80;;;;;;5425980;26;20023;-69
2024/04/12 06:13:17;;;;;;;0.05;0.05;;;11.70;98.80;;;;;;5426259;26;20372;-69
2024/04/12 06:15:43;;;;;;;0.08;0.08;;;11.70;99.90;;;;;;5429118;26;20002;-69
2024/04/12 06:18:10;;;;;;;0.00;0.00;;;12.00;98.00;;;;;;5429322;26;20007;-69
2024/04/12 06:20:41;;;;;;;0.65;0.17;;;11.70;98.10;;;;;;5424170;26;20076;-69
2024/04/12 06:23:09;;;;;;;0.15;0.10;;;;;;;;;;5437382;26;19999;-69
2024/04/12 06:25:38;;;;;;;0.20;0.20;;;;;;;;;;5425469;26;19994;-71
2024/04/12 06:28:13;;;;;;;;;;;12.30;97.50;;;;;;5426719;26;19996;-69
2024/04/12 06:30:54;;;;;;;0.20;0.20;;;12.40;97.10;;;;;;5435975;26;19966;-69
2024/04/12 06:33:22;;;;;;;1.58;0.40;;;;;;;;;;5426176;26;19998;-69
2024/04/12 06:36:11;;;;;;;0.28;0.17;;;12.50;96.50;;;;;;5424279;26;20000;-69
2024/04/12 06:38:39;;;;;;;0.13;0.13;;;;;;;;;;5425455;26;19991;-69
2024/04/12 06:41:10;;;;;;;0.03;0.03;;;12.80;99.90;;;;;;5425972;26;20070;-69
2024/04/12 06:43:37;;;;;;;0.10;0.10;;;;;;;;;;5424795;26;20041;-70
2024/04/12 06:46:11;;;;;;;0.30;0.30;;;13.00;95.70;;;;;;5422487;26;19995;-69
2024/04/12 06:48:40;;;;;;;0.50;0.50;;;13.20;99.20;;;;;;5404375;26;20092;-69
2024/04/12 06:51:11;;;;;;;0.05;0.05;;;13.20;95.10;;;;;;5427973;26;20207;-69
2024/04/12 06:53:47;;;;;;;0.10;0.10;;;13.30;94.80;;;;;;5424846;26;19995;-69
2024/04/12 06:56:17;;;;;;;0.10;0.10;;;13.50;94.60;;;;;;5425022;26;20041;-69
2024/04/12 06:58:50;;;;;;;0.15;0.05;;;13.80;99.90;;;;;;5424844;26;19992;-69
2024/04/12 07:01:21;;;;;;;0.10;0.10;;;13.80;99.90;;;;;;5425686;26;20008;-69
2024/04/12 07:03:47;;;;;;;0.03;0.03;;;13.90;99.90;;;;;;5425475;26;20019;-69
2024/04/12 07:06:18;;;;;;;2.17;0.47;;;13.90;93.70;;;;;;5425579;26;20032;-69
2024/04/12 07:08:50;;;;;;;0.00;0.00;;;14.20;99.40;;;;;;5428938;26;19995;-69
2024/04/12 07:11:19;;;;;;;0.20;0.20;;;14.60;99.30;;;;;;5436315;26;20066;-70
2024/04/12 07:13:52;;;;;;;0.00;0.00;;;14.70;99.00;;;;;;5425338;26;19992;-69
2024/04/12 07:16:19;;;;;;;0.45;0.30;;;14.80;98.30;;;;;;5428387;26;20006;-70
2024/04/12 07:18:49;;;;;;;0.13;0.13;;;15.10;98.20;;;;;;5425084;26;20006;-70
2024/04/12 07:21:18;;;;;;;0.10;0.10;;;15.00;91.30;;;;;;5421330;26;20007;-69
2024/04/12 07:23:48;;;;;;;;;;;15.20;91.00;;;;;;5428026;26;19996;-70
2024/04/12 07:26:27;;;;;;;1.25;0.30;;;15.40;90.40;;;;;;5429053;26;19925;-70
2024/04/12 07:28:59;;;;;;;3.25;1.05;;;15.50;90.10;;;;;;5425511;26;19988;-69
2024/04/12 07:31:30;;;;;;;0.10;0.10;;;15.80;87.60;;;;;;5425416;26;20060;-70
2024/04/12 07:33:59;;;;;;;0.15;0.15;;;15.80;95.90;;;;;;5425319;26;20016;-70
2024/04/12 07:36:32;;;;;;;0.10;0.10;;;16.20;97.10;;;;;;5425290;26;19991;-70
2024/04/12 07:39:01;;;;;;;0.13;0.13;;;16.10;87.20;;;;;;5401833;26;20051;-70
2024/04/12 07:41:28;;;;;;;0.00;0.00;;;16.30;86.90;;;;;;5442935;26;20035;-70
2024/04/12 07:43:55;;;;;;;0.20;0.20;;;16.40;86.30;;;;;;5439758;26;20269;-70
2024/04/12 07:46:27;;;;;;;0.10;0.10;;;16.50;85.70;;;;;;5432887;26;19995;-69
2024/04/12 07:48:57;;;;;;;0.15;0.15;;;16.70;85.10;;;;;;5425080;26;19991;-70
2024/04/12 07:51:28;;;;;;;0.20;0.20;;;16.70;84.40;;;;;;5424880;26;19996;-70
2024/04/12 07:53:54;;;;;;;0.32;0.32;;;16.80;84.30;;;;;;5410542;26;19994;-70
2024/04/12 07:56:21;;;;;;;0.68;0.68;;;17.00;83.60;;;;;;5424658;26;20196;-70
2024/04/12 07:59:13;;;;;;;0.20;0.20;;;17.10;83.40;;;;;;5427963;26;19990;-70
2024/04/12 08:01:51;;;;;;;0.22;0.22;;;17.30;82.80;;;;;;5424755;26;20014;-70
2024/04/12 08:04:36;;;;;;;0.57;0.13;;;17.50;81.90;;;;;;5424723;26;20006;-70
2024/04/12 08:07:06;;;;;;;0.05;0.05;;;17.60;81.20;;;;;;5419588;26;20248;-70
2024/04/12 08:09:40;;;;;;;0.25;0.25;;;17.70;80.70;;;;;;5424419;26;20032;-70
2024/04/12 08:12:23;;;;;;;0.20;0.20;;;17.80;80.30;;;;;;5424756;26;20003;-70
2024/04/12 08:14:53;;;;;;;0.20;0.20;;;18.00;78.50;;;;;;5424426;26;20020;-69
2024/04/12 08:17:26;;;;;;;3.65;0.30;;;18.00;79.00;;;;;;5478195;26;20077;-70
2024/04/12 08:20:13;;;;;;;0.93;0.75;;;18.10;78.70;;;;;;5428537;26;19995;-70
2024/04/12 08:22:38;;;;;;;0.03;0.03;;;18.20;77.90;;;;;;5431786;26;20112;-70
2024/04/12 08:25:06;;;;;;;0.20;0.20;;;18.30;78.70;;;;;;5424382;26;19995;-70
2024/04/12 08:27:34;;;;;;;1.23;0.20;;;18.30;77.60;;;;;;5408684;26;19991;-70
2024/04/12 08:30:00;;;;;;;0.47;0.47;;;18.40;77.10;;;;;;5424436;26;19996;-70
2024/04/12 08:32:31;;;;;;;0.35;0.35;;;18.60;91.40;;;;;;5427651;26;19998;-70
2024/04/12 08:34:58;;;;;;;0.52;0.20;;;18.60;76.50;;;;;;5410704;26;19995;-70
2024/04/12 08:37:31;;;;;;;0.30;0.30;;;18.80;75.90;;;;;;5424288;26;20076;-70
2024/04/12 08:40:08;;;;;;;0.05;0.05;;;18.90;75.60;;;;;;5410473;26;20208;-70
2024/04/12 08:42:34;;;;;;;3.33;1.65;;;19.00;75.30;;;;;;5423957;26;20695;-70
2024/04/12 08:45:12;;;;;;;0.20;0.20;;;19.20;74.50;;;;;;5424147;26;20160;-69
2024/04/12 08:48:01;;;;;;;0.10;0.10;;;19.30;74.20;;;;;;5431560;26;19990;-70
2024/04/12 08:50:31;;;;;;;0.35;0.35;;;19.30;73.20;;;;;;5427556;26;19996;-70
2024/04/12 08:52:58;;;;;;;1.00;0.32;;;19.40;73.40;;;;;;5424032;26;19991;-70
2024/04/12 08:55:24;;;;;;;0.45;0.45;;;19.50;73.00;;;;;;5424070;26;20582;-70
2024/04/12 08:58:00;;;;;;;0.28;0.25;;;19.50;72.50;;;;;;5423954;26;20000;-70
2024/04/12 09:00:32;;;;;;;0.20;0.17;;;19.60;72.70;;;;;;5407669;26;20066;-70
2024/04/12 09:03:10;;;;;;;0.20;0.20;;;19.70;72.20;;;;;;5424014;26;20000;-70
2024/04/12 09:05:38;;;;;;;;;;;19.80;71.00;;;;;;5424292;26;19988;-70
2024/04/12 09:08:05;;;;;;;0.32;0.22;;;19.80;70.40;;;;;;5428242;26;19920;-70
2024/04/12 09:10:35;;;;;;;0.22;0.22;;;19.90;70.90;;;;;;5427129;26;20060;-70
2024/04/12 09:13:08;;;;;;;0.65;0.65;;;20.00;70.80;;;;;;5427233;26;19992;-70
2024/04/12 09:15:42;;;;;;;0.88;0.85;;;20.10;68.90;;;;;;5430431;26;20068;-71
2024/04/12 09:18:13;;;;;;;0.25;0.20;;;20.10;69.20;;;;;;5427262;26;19995;-70
2024/04/12 09:20:41;;;;;;;0.77;0.20;;;20.20;69.50;;;;;;5427179;26;20311;-70
2024/04/12 09:23:20;;;;;;;0.30;0.30;;;20.40;67.30;;;;;;5427209;26;20065;-70
2024/04/12 09:25:54;;;;;;;0.20;0.20;;;20.40;68.60;;;;;;5429674;26;19987;-70
2024/04/12 09:28:26;;;;;;;0.30;0.30;;;20.50;68.50;;;;;;5427085;26;20017;-70
2024/04/12 09:33:50;;;;;;;0.20;0.20;;;20.70;67.60;;;;;;5426742;26;20058;-70
2024/04/12 09:36:38;;;;;;;0.15;0.15;;;20.80;67.40;;;;;;5426957;26;19995;-70
2024/04/12 09:39:14;;;;;;;0.05;0.05;;;21.00;81.70;;;;;;5426742;26;19998;-70
2024/04/12 09:41:53;;;;;;;0.10;0.10;;;21.00;66.70;;;;;;5430411;26;20017;-70
2024/04/12 09:44:26;;;;;;;0.28;0.28;;;21.10;66.00;;;;;;5426983;26;20034;-70
2024/04/12 10:37:30;;;;;;;0.40;0.40;;;22.60;60.70;;;;;;5426114;26;19998;-70
2024/04/12 10:39:57;;;;;;;0.10;0.10;;;22.60;60.60;;;;;;5425759;26;20002;-70
2024/04/12 10:42:28;;;;;;;0.35;0.35;;;22.60;60.20;;;;;;5426043;26;20003;-70
2024/04/12 10:44:56;;;;;;;0.40;0.40;;;22.70;60.30;;;;;;5425770;26;19991;-68
2024/04/12 10:47:25;;;;;;;;;;;22.80;60.00;;;;;;5426234;26;20323;-69
2024/04/12 10:49:51;;;;;;;0.13;0.13;;;22.80;58.40;;;;;;5429354;26;19959;-68
2024/04/12 10:52:28;;;;;;;0.20;0.20;;;22.80;58.80;;;;;;5425947;26;20190;-68
2024/04/12 10:54:59;;;;;;;0.10;0.10;;;22.80;58.90;;;;;;5360146;26;20019;-69
2024/04/12 10:57:27;;;;;;;0.25;0.25;;;22.90;59.00;;;;;;5418760;26;20002;-68
2024/04/12 10:59:54;;;;;;;0.57;0.57;;;22.90;58.30;;;;;;5425244;26;19995;-68
2024/04/12 11:02:21;;;;;;;0.20;0.20;;;22.90;57.60;;;;;;5425887;26;20006;-69
2024/04/12 11:05:24;;;;;;;0.98;0.30;;;22.90;58.00;;;;;;5425452;26;20003;-70
2024/04/12 11:07:54;;;;;;;0.77;0.20;;;23.00;58.00;;;;;;5425539;26;20006;-70
2024/04/12 11:10:25;;;;;;;0.10;0.10;;;23.10;57.70;;;;;;5425592;26;20044;-70
2024/04/12 11:12:59;;;;;;;0.40;0.40;;;23.10;57.40;;;;;;5425332;26;19988;-68
2024/04/12 11:32:15;;;;;;;0.20;0.20;;;23.40;56.40;;;;;;5424527;26;20003;-71
2024/04/12 11:34:42;;;;;;;0.82;0.65;;;23.30;70.00;;;;;;5424776;26;19999;-70
2024/04/12 11:37:13;;;;;;;0.70;0.40;;;23.40;56.30;;;;;;5425233;26;20027;-70
2024/04/12 11:39:41;;;;;;;0.75;0.38;;;;;;;;;;5431375;26;19990;-70
2024/04/12 11:42:10;;;;;;;0.10;0.10;;;23.90;65.60;;;;;;5425181;26;20006;-70
2024/04/12 11:44:37;;;;;;;0.20;0.20;;;24.10;62.10;;;;;;5424837;26;20045;-68
2024/04/12 11:47:05;;;;;;;0.30;0.30;;;24.10;64.30;;;;;;5429465;26;20046;-68
2024/04/12 11:49:49;;;;;;;;;;;24.00;54.60;;;;;;5425543;26;20107;-68
2024/04/12 11:52:15;;;;;;;0.30;0.30;;;24.00;64.50;;;;;;5425251;26;19921;-68
2024/04/12 11:54:53;;;;;;;0.20;0.10;;;24.10;64.00;;;;;;5424701;26;20045;-68
2024/04/12 11:57:22;;;;;;;0.32;0.32;;;24.20;63.60;;;;;;5428912;26;20198;-71
2024/04/12 11:59:58;;;;;;;0.38;0.38;;;24.10;63.20;;;;;;5424505;26;20888;-67
2024/04/12 12:02:25;;;;;;;2.75;0.50;;;24.10;63.30;;;;;;5424909;26;20224;-70
2024/04/12 12:04:51;;;;;;;0.90;0.47;;;24.10;63.40;;;;;;5424616;26;20008;-70
2024/04/12 12:07:17;;;;;;;0.22;0.22;;;24.10;63.00;;;;;;5424681;26;20024;-70
2024/04/12 12:09:43;;;;;;;0.20;0.17;;;24.10;53.30;;;;;;5424682;26;20049;-70
2024/04/12 12:12:12;;;;;;;0.52;0.50;;;24.60;63.80;;;;;;5424669;26;19991;-70
2024/04/12 12:14:43;;;;;;;0.50;0.50;;;24.60;62.40;;;;;;5428120;26;19995;-70
2024/04/12 12:17:16;;;;;;;0.10;0.10;;;24.60;60.60;;;;;;5424576;26;19995;-71
2024/04/12 12:19:42;;;;;;;0.10;0.10;;;24.50;60.70;;;;;;5431482;26;20052;-71
2024/04/12 12:22:10;;;;;;;0.65;0.20;;;24.40;61.40;;;;;;5424438;26;20007;-71
2024/04/12 12:24:37;;;;;;;0.20;0.20;;;24.40;61.10;;;;;;5424229;26;20208;-70
2024/04/12 12:27:08;;;;;;;0.10;0.10;;;24.50;60.40;;;;;;5424509;26;20040;-70
2024/04/12 12:29:38;;;;;;;0.52;0.35;;;24.50;59.70;;;;;;5424302;26;19998;-70
2024/04/12 12:32:05;;;;;;;0.25;0.25;;;24.10;60.10;;;;;;5428271;26;20035;-71
2024/04/12 12:34:33;;;;;;;0.32;0.30;;;24.50;59.50;;;;;;5424034;26;20020;-71
2024/04/12 12:37:00;;;;;;;0.15;0.15;;;25.00;59.60;;;;;;5424147;26;19992;-71
2024/04/12 12:39:31;;;;;;;0.10;0.10;;;24.60;50.30;;;;;;5424031;26;19992;-71
2024/04/12 12:42:01;;;;;;;0.00;0.00;;;24.50;50.40;;;;;;5423850;26;20000;-71
2024/04/12 12:44:28;;;;;;;0.10;0.10;;;24.30;59.10;;;;;;5423389;26;19995;-71
2024/04/12 12:47:05;;;;;;;0.20;0.20;;;24.50;60.10;;;;;;5409510;26;19992;-70
2024/04/12 12:49:40;;;;;;;0.20;0.20;;;24.40;57.90;;;;;;5427722;26;20204;-70
2024/04/12 12:52:11;;;;;;;0.47;0.13;;;24.40;50.00;;;;;;5437477;26;19992;-71
2024/04/12 12:54:43;;;;;;;0.25;0.17;;;24.40;58.60;;;;;;5423998;26;20645;-70
2024/04/12 12:57:14;;;;;;;0.45;0.45;;;24.50;58.10;;;;;;5424119;26;19991;-70
2024/04/12 12:59:44;;;;;;;0.20;0.20;;;24.50;49.60;;;;;;5423762;26;19999;-70
2024/04/12 13:02:15;;;;;;;0.40;0.40;;;25.40;56.00;;;;;;5423924;26;20007;-69
2024/04/12 13:04:42;;;;;;;0.45;0.45;;;25.40;48.80;;;;;;5426216;26;20006;-71
2024/04/12 13:07:09;;;;;;;0.43;0.43;;;26.70;48.90;;;;;;5423580;26;20027;-70
2024/04/12 13:09:35;;;;;;;0.35;0.35;;;31.50;46.30;;;;;;5423127;26;19998;-70
2024/04/12 13:12:10;;;;;;;0.38;0.38;;;35.40;41.80;;;;;;5423368;26;19996;-70
2024/04/12 13:14:37;;;;;;;0.38;0.20;;;39.30;36.60;;;;;;5422921;26;20204;-70
2024/04/12 13:17:11;;;;;;;0.10;0.10;;;39.60;36.50;;;;;;5370077;26;20024;-70
2024/04/12 13:19:38;;;;;;;0.22;0.22;;;37.10;43.80;;;;;;5426112;26;19996;-70
2024/04/12 13:22:14;;;;;;;0.30;0.20;;;37.00;37.40;;;;;;5427151;26;20092;-70
2024/04/12 13:24:40;;;;;;;0.22;0.10;;;35.20;39.00;;;;;;5422825;26;19987;-70
2024/04/12 13:27:07;;;;;;;0.20;0.17;;;33.20;40.60;;;;;;5423181;26;20044;-70
2024/04/12 13:29:33;;;;;;;0.32;0.22;;;31.50;41.90;;;;;;5422975;26;19992;-69
2024/04/12 13:32:00;;;;;;;0.00;0.00;;;30.10;43.70;;;;;;5423145;26;20061;-69
2024/04/12 13:34:26;;;;;;;0.32;0.32;;;28.90;44.80;;;;;;5423412;26;20031;-69
2024/04/12 13:36:52;;;;;;;0.10;0.10;;;28.10;45.50;;;;;;5423287;26;19995;-69
2024/04/12 13:39:19;;;;;;;0.22;0.22;;;27.40;46.00;;;;;;5426952;26;19992;-69
2024/04/12 13:41:45;;;;;;;0.45;0.28;;;26.20;55.40;;;;;;5423112;26;20006;-69
2024/04/12 13:50:46;;;;;;;1.45;0.30;;;25.70;55.40;;;;;;5423175;26;19987;-69
2024/04/12 13:52:44;;;;;;;0.00;0.00;;;25.30;49.10;;;;;;5432113;26;20048;-69
2024/04/12 13:55:11;;;;;;;0.35;0.30;;;24.80;56.20;;;;;;5425429;26;20002;-68
2024/04/12 13:57:40;;;;;;;0.10;0.10;;;24.80;56.30;;;;;;5430214;26;20184;-68
2024/04/12 14:00:10;;;;;;;0.20;0.20;;;25.00;56.00;;;;;;5426455;26;19992;-69
2024/04/12 14:02:36;;;;;;;0.20;0.20;;;24.70;55.90;;;;;;5426178;26;20010;-69
2024/04/12 14:05:02;;;;;;;0.08;0.08;;;24.70;56.10;;;;;;5426530;26;19999;-69
2024/04/12 14:07:34;;;;;;;0.00;0.00;;;24.60;55.70;;;;;;5426330;26;20023;-69
2024/04/12 14:10:06;;;;;;;0.10;0.10;;;24.80;55.70;;;;;;5412252;26;20208;-68
2024/04/12 14:12:32;;;;;;;0.00;0.00;;;24.40;55.80;;;;;;5430214;26;19998;-69
2024/04/12 14:14:58;;;;;;;0.00;0.00;;;24.40;55.50;;;;;;5426281;26;19991;-69
2024/04/12 14:17:23;;;;;;;0.17;0.10;;;24.20;55.60;;;;;;5465147;26;19998;-68
2024/04/12 14:19:51;;;;;;;0.32;0.20;;;24.20;55.60;;;;;;5439686;26;20193;-69
2024/04/12 14:22:17;;;;;;;0.00;0.00;;;24.10;55.10;;;;;;5426453;26;19996;-70
2024/04/12 14:25:02;;;;;;;0.63;0.17;;;;;;;;;;5426012;26;19999;-68
2024/04/12 14:27:31;;;;;;;0.15;0.15;;;24.20;55.10;;;;;;5426525;26;20002;-69
2024/04/12 14:29:56;;;;;;;0.10;0.10;;;24.00;55.10;;;;;;5430190;26;20092;-68